Time;durP1;ratioP1;P1;durP2;ratioP2;P2;SDS_P1;SDS_P2;PMS_P1;PMS_P2;Temp;Humidity;BMP_temperature;BMP_pressure;BME280_temperature;BME280_humidity;BME280_pressure;Samples;Min_cycle;Max_cycle;Signal;HPM_P1;HPM_P2
2023/12/03 00:00:30;;;;;;;29.98;9.93;;;;;;;3.99;59.95;101867.66;5015415;28;115017;-76
2023/12/03 00:02:58;;;;;;;29.60;9.80;;;;;;;4.00;59.98;101864.16;5017001;28;114823;-77
2023/12/03 00:05:29;;;;;;;37.85;10.70;;;;;;;4.01;59.87;101865.94;5001891;28;124099;-76
2023/12/03 00:07:57;;;;;;;32.08;9.32;;;;;;;4.03;60.08;101869.41;4994193;28;124149;-76
2023/12/03 00:10:24;;;;;;;28.50;10.48;;;;;;;4.04;59.46;101865.03;5015484;28;117141;-76
2023/12/03 00:12:52;;;;;;;29.92;9.93;;;;;;;4.04;59.78;101865.03;5017480;28;114017;-77
2023/12/03 00:15:21;;;;;;;32.13;10.38;;;;;;;4.05;60.09;101867.66;5013398;28;124160;-76
2023/12/03 00:17:52;;;;;;;30.23;9.90;;;;;;;4.06;59.82;101858.91;5015980;28;123637;-76
2023/12/03 00:20:19;;;;;;;33.38;10.00;;;;;;;4.07;60.31;101860.66;5011598;28;115401;-76
2023/12/03 00:22:46;;;;;;;32.63;10.75;;;;;;;4.09;60.14;101864.16;5018527;28;115168;-76
2023/12/03 00:25:16;;;;;;;33.42;10.30;;;;;;;4.12;60.13;101862.41;5017324;28;124019;-77
2023/12/03 00:27:43;;;;;;;33.83;10.68;;;;;;;4.16;60.04;101864.13;5017030;28;123950;-77
2023/12/03 00:30:11;;;;;;;32.35;9.73;;;;;;;4.17;60.19;101860.66;5006814;28;115053;-77
2023/12/03 00:32:38;;;;;;;32.63;10.43;;;;;;;4.21;60.03;101862.38;4998913;28;114960;-77
2023/12/03 00:35:06;;;;;;;33.50;10.50;;;;;;;4.22;60.41;101864.13;5016192;28;124122;-76
2023/12/03 00:37:33;;;;;;;30.75;9.65;;;;;;;4.23;60.22;101865.88;4988314;28;124867;-76
2023/12/03 00:40:02;;;;;;;39.35;10.82;;;;;;;4.26;60.17;101860.63;4990395;28;113546;-76
2023/12/03 00:42:29;;;;;;;32.30;10.73;;;;;;;4.28;60.44;101858.88;5019215;28;113833;-77
2023/12/03 00:44:56;;;;;;;27.33;9.82;;;;;;;4.31;60.21;101853.59;4998534;28;124155;-78
2023/12/03 00:47:25;;;;;;;27.98;9.30;;;;;;;4.34;60.31;101853.59;4997675;28;124524;-77
2023/12/03 00:49:53;;;;;;;34.25;10.55;;;;;;;4.36;60.18;101846.59;5006241;28;114898;-77
2023/12/03 00:52:21;;;;;;;34.03;10.23;;;;;;;4.38;60.23;101847.47;5013386;28;114357;-76
2023/12/03 00:54:49;;;;;;;31.23;10.00;;;;;;;4.41;60.41;101854.47;5014168;28;123650;-77
2023/12/03 00:57:16;;;;;;;33.75;10.18;;;;;;;4.41;60.18;101855.34;5011075;28;123744;-78
2023/12/03 00:59:44;;;;;;;29.45;10.13;;;;;;;4.43;60.54;101848.34;5006779;28;114402;-77
2023/12/03 01:02:18;;;;;;;28.80;10.23;;;;;;;4.43;60.54;101864.06;5013197;28;115154;-77
2023/12/03 01:04:45;;;;;;;27.50;9.45;;;;;;;4.45;60.45;101862.31;5013620;28;124376;-77
2023/12/03 01:07:14;;;;;;;25.10;9.23;;;;;;;4.48;60.37;101862.31;5010913;28;123756;-77
2023/12/03 01:09:41;;;;;;;25.20;9.82;;;;;;;4.48;60.50;101857.06;4993784;28;114961;-77
2023/12/03 01:12:10;;;;;;;30.50;9.85;;;;;;;4.49;60.60;101861.41;5011801;28;115185;-77
2023/12/03 01:14:37;;;;;;;23.38;9.85;;;;;;;4.52;60.35;101867.53;4993573;28;123838;-76
2023/12/03 01:17:04;;;;;;;24.02;8.50;;;;;;;4.53;60.60;101869.28;4995789;28;123759;-76
2023/12/03 01:19:31;;;;;;;23.88;8.38;;;;;;;4.55;60.90;101865.78;4989315;28;113678;-77
2023/12/03 01:21:59;;;;;;;28.67;9.02;;;;;;;4.59;60.86;101869.25;5011786;28;114308;-77
2023/12/03 01:24:26;;;;;;;27.73;8.73;;;;;;;4.62;60.85;101871.88;4995647;28;123094;-77
2023/12/03 01:27:27;;;;;;;30.08;8.90;;;;;;;4.64;60.70;101867.50;5006997;28;123682;-77
2023/12/03 01:29:55;;;;;;;23.17;7.65;;;;;;;4.67;60.59;101872.72;4982882;28;113750;-77
2023/12/03 01:32:24;;;;;;;23.58;7.93;;;;;;;4.70;60.71;101872.72;4978992;28;113293;-77
2023/12/03 01:34:51;;;;;;;25.42;8.88;;;;;;;4.72;60.59;101873.59;5013573;28;123773;-75
2023/12/03 01:37:20;;;;;;;25.48;8.25;;;;;;;4.75;60.53;101876.19;5009706;28;123459;-75
2023/12/03 01:39:47;;;;;;;22.45;7.30;;;;;;;4.78;60.63;101876.16;5011258;28;114147;-75
2023/12/03 01:42:14;;;;;;;25.80;8.73;;;;;;;4.81;60.69;101870.91;5012127;28;113915;-75
2023/12/03 01:45:13;;;;;;;27.95;8.98;;;;;;;4.83;60.85;101874.41;5012959;28;124171;-76
2023/12/03 01:47:41;;;;;;;22.02;8.30;;;;;;;4.86;60.65;101877.03;4999679;28;124070;-75
2023/12/03 01:50:12;;;;;;;28.10;8.52;;;;;;;4.88;60.46;101883.13;4988060;28;114059;-75
2023/12/03 01:52:39;;;;;;;22.02;8.35;;;;;;;4.91;60.69;101881.38;5013789;28;114159;-76
2023/12/03 01:55:40;;;;;;;27.85;8.85;;;;;;;4.93;60.66;101890.13;4996841;28;122874;-76
2023/12/03 01:58:07;;;;;;;21.65;8.07;;;;;;;4.94;60.84;101882.25;5002940;28;124548;-76
2023/12/03 02:00:36;;;;;;;21.13;8.13;;;;;;;4.96;60.57;101882.25;4992860;28;115277;-77
2023/12/03 02:03:11;;;;;;;22.67;7.68;;;;;;;4.99;60.58;101887.44;4997449;28;115026;-76
2023/12/03 02:06:07;;;;;;;24.75;8.10;;;;;;;5.01;60.95;101888.31;5016103;28;123698;-76
2023/12/03 02:08:35;;;;;;;21.50;7.45;;;;;;;5.04;60.62;101888.31;4996111;28;122919;-76
2023/12/03 02:11:09;;;;;;;23.10;7.97;;;;;;;5.06;60.44;101891.78;5017645;28;114538;-76
2023/12/03 02:13:37;;;;;;;22.75;8.23;;;;;;;5.07;60.83;101888.31;5004909;28;113940;-76
2023/12/03 02:16:15;;;;;;;22.92;8.43;;;;;;;5.06;60.45;101891.78;5012922;28;123919;-76
2023/12/03 02:18:42;;;;;;;19.42;7.93;;;;;;;5.08;60.55;101895.28;5015424;28;124795;-76
2023/12/03 02:21:11;;;;;;;26.73;8.90;;;;;;;5.10;60.65;101893.53;5000000;28;114309;-76
2023/12/03 02:23:39;;;;;;;22.73;8.82;;;;;;;5.13;60.64;101898.75;5011582;28;113788;-76
2023/12/03 02:26:18;;;;;;;22.48;8.50;;;;;;;5.16;61.01;101898.75;4998322;28;124296;-76
2023/12/03 02:28:45;;;;;;;27.30;9.25;;;;;;;5.18;60.78;101902.25;5006887;28;124195;-76
2023/12/03 02:31:13;;;;;;;20.65;8.57;;;;;;;5.18;61.06;101897.00;5009066;28;114950;-76
2023/12/03 02:33:51;;;;;;;25.25;9.23;;;;;;;5.20;60.75;101903.09;5007912;28;113058;-76
2023/12/03 02:36:18;;;;;;;22.35;8.65;;;;;;;5.19;60.93;101903.97;5005052;28;123910;-76
2023/12/03 02:38:47;;;;;;;24.65;9.05;;;;;;;5.20;60.73;101894.38;4999110;28;124031;-76
2023/12/03 02:41:14;;;;;;;23.67;8.95;;;;;;;5.22;60.64;101897.84;4996095;28;114594;-76
2023/12/03 02:43:43;;;;;;;21.08;9.15;;;;;;;5.24;60.80;101902.19;4996746;28;114253;-76
2023/12/03 02:46:10;;;;;;;25.83;9.07;;;;;;;5.24;60.88;101896.09;5015479;28;124070;-77
2023/12/03 02:48:37;;;;;;;24.02;8.70;;;;;;;5.24;60.34;101896.94;5014930;28;123823;-77
2023/12/03 02:51:23;;;;;;;30.73;9.77;;;;;;;5.23;60.88;101889.94;5008887;28;115450;-76
2023/12/03 02:53:51;;;;;;;22.63;9.23;;;;;;;5.24;60.77;101891.69;5017246;28;115373;-75
2023/12/03 02:56:25;;;;;;;22.55;8.55;;;;;;;5.23;60.48;101894.31;4999180;28;122329;-75
2023/12/03 02:58:52;;;;;;;22.98;8.73;;;;;;;5.23;60.89;101894.31;5000686;28;123505;-75
2023/12/03 03:01:40;;;;;;;22.23;8.32;;;;;;;5.22;60.93;101887.34;4994565;28;113999;-75
2023/12/03 03:04:08;;;;;;;24.73;8.55;;;;;;;5.23;60.48;101894.31;4988240;28;113734;-77
2023/12/03 03:06:35;;;;;;;22.13;8.15;;;;;;;5.23;60.76;101891.69;4998668;28;123667;-76
2023/12/03 03:09:04;;;;;;;22.00;8.65;;;;;;;5.21;60.54;101891.72;5017073;28;123257;-77
2023/12/03 03:11:31;;;;;;;24.42;9.30;;;;;;;5.22;60.90;101898.72;5006694;28;114181;-76
2023/12/03 03:14:06;;;;;;;24.08;10.10;;;;;;;5.23;60.54;101896.97;5019097;28;113732;-76
2023/12/03 03:16:34;;;;;;;23.70;9.70;;;;;;;5.24;60.76;101902.19;5012814;28;124100;-76
2023/12/03 03:19:04;;;;;;;24.50;8.52;;;;;;;5.23;60.42;101910.94;5016268;28;123871;-76
2023/12/03 03:21:37;;;;;;;22.38;8.85;;;;;;;5.22;60.64;101906.59;5015215;28;114216;-76
2023/12/03 03:24:17;;;;;;;21.13;8.88;;;;;;;5.21;60.70;101910.09;5017130;28;115201;-76
2023/12/03 03:26:44;;;;;;;27.35;9.05;;;;;;;5.20;60.67;101910.13;4976292;28;124215;-76
2023/12/03 03:29:11;;;;;;;19.98;8.20;;;;;;;5.17;60.58;101905.75;5012235;28;123284;-76
2023/12/03 03:31:39;;;;;;;27.80;9.10;;;;;;;5.15;60.59;101906.66;4997549;28;114113;-76
2023/12/03 03:34:41;;;;;;;22.83;8.20;;;;;;;5.10;60.39;101909.28;4999472;28;113304;-76
2023/12/03 03:37:08;;;;;;;24.48;9.23;;;;;;;5.08;60.38;101908.41;5007219;28;124586;-77
2023/12/03 03:39:41;;;;;;;27.17;9.98;;;;;;;5.04;60.71;101909.31;5008964;28;122755;-76
2023/12/03 03:42:08;;;;;;;25.30;9.23;;;;;;;5.02;60.48;101916.31;5009211;28;115365;-76
2023/12/03 03:44:35;;;;;;;32.10;10.38;;;;;;;4.98;60.60;101904.09;5033030;28;114990;-76
2023/12/03 03:47:03;;;;;;;25.80;9.32;;;;;;;4.97;60.74;101912.84;5030320;28;124402;-75
2023/12/03 03:49:33;;;;;;;25.25;9.05;;;;;;;4.94;60.83;101907.63;5010384;28;123819;-75
2023/12/03 03:52:01;;;;;;;26.63;9.35;;;;;;;4.92;60.60;101910.25;5013736;28;114314;-75
2023/12/03 03:54:28;;;;;;;25.25;9.35;;;;;;;4.91;60.35;101907.63;5012134;28;114690;-75
2023/12/03 03:56:57;;;;;;;25.42;8.75;;;;;;;4.88;60.38;101909.38;5012408;28;123846;-75
2023/12/03 03:59:25;;;;;;;25.98;9.27;;;;;;;4.85;60.43;101909.38;5012842;28;123869;-75
2023/12/03 04:01:54;;;;;;;24.00;9.52;;;;;;;4.83;60.35;101916.41;5014380;28;114147;-75
2023/12/03 04:04:21;;;;;;;22.88;9.15;;;;;;;4.81;60.64;101918.16;5008743;28;114136;-75
2023/12/03 04:06:50;;;;;;;23.00;9.10;;;;;;;4.80;60.38;101921.69;5006407;28;124419;-75
2023/12/03 04:09:18;;;;;;;26.17;9.82;;;;;;;4.81;60.33;101933.03;5002256;28;123771;-74
2023/12/03 04:11:46;;;;;;;26.05;9.93;;;;;;;4.80;60.78;101920.78;4984513;28;113291;-74
2023/12/03 04:14:16;;;;;;;20.50;8.98;;;;;;;4.79;60.68;101925.16;4994188;28;113833;-74
2023/12/03 04:16:50;;;;;;;26.55;8.88;;;;;;;4.78;60.44;101933.91;4993352;28;124003;-74
2023/12/03 04:19:17;;;;;;;25.07;9.37;;;;;;;4.78;60.42;101928.66;5013045;28;124341;-74
2023/12/03 04:21:45;;;;;;;23.70;9.30;;;;;;;4.76;60.41;101934.81;5003622;28;114162;-74
2023/12/03 04:24:12;;;;;;;29.35;9.30;;;;;;;4.74;60.54;101926.06;4978741;28;113111;-74
2023/12/03 04:26:44;;;;;;;27.70;10.73;;;;;;;4.74;60.51;101926.06;5009459;28;122126;-75
2023/12/03 04:29:12;;;;;;;27.85;9.90;;;;;;;4.72;60.61;101933.94;4994379;28;123876;-75
2023/12/03 04:32:04;;;;;;;28.60;10.85;;;;;;;4.72;60.75;101926.06;5000951;28;115329;-75
2023/12/03 04:34:32;;;;;;;27.80;9.57;;;;;;;4.69;60.69;101928.72;4990142;28;114245;-75
2023/12/03 04:37:00;;;;;;;27.23;9.77;;;;;;;4.67;60.44;101925.19;4988109;28;123093;-75
2023/12/03 04:39:28;;;;;;;28.20;10.43;;;;;;;4.65;60.48;101922.59;4996369;28;122635;-75
2023/12/03 04:41:56;;;;;;;29.02;10.30;;;;;;;4.63;60.73;101929.59;5010539;28;114371;-75
2023/12/03 04:44:24;;;;;;;29.27;10.35;;;;;;;4.61;60.54;101935.72;5013118;28;114709;-75
2023/12/03 04:46:51;;;;;;;24.23;9.73;;;;;;;4.59;60.41;101937.47;5013133;28;124543;-75
2023/12/03 04:49:19;;;;;;;25.50;10.40;;;;;;;4.57;60.46;101933.97;5002950;28;124922;-75
2023/12/03 04:51:46;;;;;;;31.58;10.10;;;;;;;4.54;60.78;101933.97;5012372;28;114791;-75
2023/12/03 04:54:14;;;;;;;23.20;9.45;;;;;;;4.51;60.39;101936.63;4979194;28;113656;-75
2023/12/03 04:56:42;;;;;;;26.20;9.57;;;;;;;4.47;60.60;101934.00;5011715;28;123488;-75
2023/12/03 04:59:09;;;;;;;26.50;9.10;;;;;;;4.45;60.53;101941.00;4984756;28;123600;-75
2023/12/03 05:01:49;;;;;;;27.23;9.75;;;;;;;4.44;60.63;101943.63;5008972;28;114251;-75
2023/12/03 05:04:17;;;;;;;21.80;9.15;;;;;;;4.41;60.58;101939.28;4982704;28;114046;-75
2023/12/03 05:06:45;;;;;;;22.75;9.50;;;;;;;4.37;60.61;101937.53;5013241;28;124364;-75
2023/12/03 05:09:13;;;;;;;26.85;10.00;;;;;;;4.34;60.29;101941.91;5008584;28;124271;-75
2023/12/03 05:11:40;;;;;;;24.17;10.00;;;;;;;4.31;60.48;101940.16;5013153;28;114571;-75
2023/12/03 05:14:08;;;;;;;27.17;10.20;;;;;;;4.29;60.53;101939.28;5019621;28;114663;-75
2023/12/03 05:16:42;;;;;;;27.42;9.45;;;;;;;4.26;60.45;101939.31;4989517;28;124711;-75
2023/12/03 05:19:09;;;;;;;25.17;9.50;;;;;;;4.23;60.76;101934.03;5001891;28;123233;-75
2023/12/03 05:21:37;;;;;;;24.70;10.25;;;;;;;4.19;60.72;101937.56;4992316;28;114632;-75
2023/12/03 05:24:04;;;;;;;27.13;10.23;;;;;;;4.17;60.71;101939.31;5032597;28;114822;-75
2023/12/03 05:26:32;;;;;;;24.67;9.48;;;;;;;4.13;60.28;101948.06;5020171;28;124638;-75
2023/12/03 05:29:01;;;;;;;26.75;10.05;;;;;;;4.09;60.36;101948.03;5004034;28;124569;-74
2023/12/03 05:31:29;;;;;;;30.75;10.02;;;;;;;4.08;60.49;101951.53;5016361;28;115024;-74
2023/12/03 05:33:57;;;;;;;27.63;9.82;;;;;;;4.03;60.61;101958.53;5013875;28;113231;-75
2023/12/03 05:36:24;;;;;;;26.27;9.68;;;;;;;4.03;60.79;101958.53;5016474;28;124870;-75
2023/12/03 05:38:52;;;;;;;30.13;9.93;;;;;;;4.00;60.46;101957.66;5005134;28;123612;-75
2023/12/03 05:41:20;;;;;;;30.00;10.50;;;;;;;3.98;60.34;101955.03;5008903;28;114545;-75
2023/12/03 05:43:49;;;;;;;27.80;9.90;;;;;;;3.96;60.73;101956.78;5002910;28;114643;-75
2023/12/03 05:46:16;;;;;;;27.80;10.07;;;;;;;3.94;60.47;101963.78;5006781;28;124162;-75
2023/12/03 05:48:43;;;;;;;28.38;9.98;;;;;;;3.91;60.75;101963.75;5008182;28;124228;-75
2023/12/03 05:51:11;;;;;;;24.27;9.88;;;;;;;3.88;60.57;101958.50;4985712;28;114110;-75
2023/12/03 05:53:38;;;;;;;26.83;10.00;;;;;;;3.85;60.53;101963.75;5007013;28;113387;-75
2023/12/03 05:56:07;;;;;;;26.40;10.15;;;;;;;3.81;60.86;101964.63;4994742;28;123262;-75
2023/12/03 05:58:34;;;;;;;23.58;9.98;;;;;;;3.78;60.71;101972.47;4993951;28;123696;-75
2023/12/03 06:01:04;;;;;;;26.77;9.73;;;;;;;3.74;60.41;101971.59;5014396;28;114626;-75
2023/12/03 06:03:31;;;;;;;28.15;9.98;;;;;;;3.73;60.82;101975.13;4993745;28;114524;-75
2023/12/03 06:06:06;;;;;;;26.83;10.10;;;;;;;3.72;60.74;101977.72;5011050;28;124263;-75
2023/12/03 06:08:33;;;;;;;25.35;9.35;;;;;;;3.70;60.73;101981.19;5010053;28;124007;-75
2023/12/03 06:11:07;;;;;;;33.17;9.45;;;;;;;3.68;60.79;101982.09;5013118;28;115018;-76
2023/12/03 06:13:34;;;;;;;26.42;9.75;;;;;;;3.66;60.76;101984.69;5010314;28;115075;-76
2023/12/03 06:16:02;;;;;;;25.50;9.30;;;;;;;3.63;60.63;101989.91;5002157;28;124313;-75
2023/12/03 06:18:29;;;;;;;25.23;9.25;;;;;;;3.61;60.77;101981.19;5014716;28;123883;-75
2023/12/03 06:20:57;;;;;;;31.50;9.40;;;;;;;3.59;60.78;101977.69;5015486;28;114743;-75
2023/12/03 06:23:26;;;;;;;24.23;8.80;;;;;;;3.56;60.54;101988.19;4998438;28;114300;-75
2023/12/03 06:25:53;;;;;;;29.20;9.40;;;;;;;3.56;60.68;101985.56;4998078;28;123835;-75
2023/12/03 06:28:22;;;;;;;22.40;8.55;;;;;;;3.53;60.45;101990.78;5010016;28;124186;-75
2023/12/03 06:30:49;;;;;;;29.98;9.35;;;;;;;3.51;60.44;101979.44;4992488;28;114271;-75
2023/12/03 06:33:20;;;;;;;31.40;9.43;;;;;;;3.49;60.61;101986.41;4986329;28;113037;-74
2023/12/03 06:35:51;;;;;;;26.83;9.60;;;;;;;3.46;60.62;101986.38;5005519;28;122912;-74
2023/12/03 06:38:18;;;;;;;30.35;10.05;;;;;;;3.44;60.82;101988.13;5000794;28;123743;-74
2023/12/03 06:40:46;;;;;;;25.85;8.88;;;;;;;3.43;60.58;101986.41;4990950;28;113838;-74
2023/12/03 06:43:14;;;;;;;27.40;8.93;;;;;;;3.42;60.63;101989.88;5012572;28;114362;-75
2023/12/03 06:45:41;;;;;;;25.20;8.55;;;;;;;3.40;60.61;101989.00;5009919;28;124842;-74
2023/12/03 06:48:11;;;;;;;27.25;9.45;;;;;;;3.41;60.78;101988.09;5009585;28;124022;-74
2023/12/03 06:50:39;;;;;;;26.20;9.35;;;;;;;3.41;60.65;101988.09;5011612;28;114086;-74
2023/12/03 06:53:09;;;;;;;25.88;9.23;;;;;;;3.40;60.91;101986.38;5009786;28;114866;-74
2023/12/03 06:55:38;;;;;;;25.20;8.70;;;;;;;3.38;60.90;101988.13;5009985;28;123860;-74
2023/12/03 06:58:05;;;;;;;25.38;8.30;;;;;;;3.38;60.48;101993.34;4997712;28;123367;-74
2023/12/03 07:00:39;;;;;;;30.52;9.75;;;;;;;3.34;60.81;101991.59;5012401;28;115276;-74
2023/12/03 07:03:06;;;;;;;28.92;8.93;;;;;;;3.34;60.76;101996.84;5015764;28;114844;-74
2023/12/03 07:05:33;;;;;;;24.63;8.50;;;;;;;3.30;60.88;101986.34;4999980;28;124085;-74
2023/12/03 07:08:00;;;;;;;26.10;8.45;;;;;;;3.29;60.90;101984.59;5012987;28;124042;-74
2023/12/03 07:10:28;;;;;;;31.67;9.57;;;;;;;3.29;60.51;101984.59;5010581;28;113528;-74
2023/12/03 07:12:55;;;;;;;25.45;8.57;;;;;;;3.27;60.70;101988.94;4997290;28;114049;-74
2023/12/03 07:15:23;;;;;;;25.55;8.75;;;;;;;3.27;60.79;101986.31;5011320;28;124553;-75
2023/12/03 07:17:53;;;;;;;29.98;9.65;;;;;;;3.27;60.82;101991.56;5011917;28;123758;-74
2023/12/03 07:20:20;;;;;;;23.75;8.40;;;;;;;3.27;60.62;101996.78;5012595;28;114624;-75
2023/12/03 07:22:48;;;;;;;28.30;9.10;;;;;;;3.27;60.90;101996.78;5022682;28;114360;-75
2023/12/03 07:25:15;;;;;;;24.13;9.20;;;;;;;3.27;60.76;101999.41;5020106;28;124813;-75
2023/12/03 07:27:42;;;;;;;27.67;9.48;;;;;;;3.28;60.73;102002.94;5002643;28;123853;-75
2023/12/03 07:30:10;;;;;;;22.77;8.50;;;;;;;3.27;60.57;101999.41;5015093;28;115671;-75
2023/12/03 07:32:37;;;;;;;27.80;9.23;;;;;;;3.27;60.62;102012.50;5022761;28;114113;-75
2023/12/03 07:35:05;;;;;;;28.80;9.63;;;;;;;3.28;60.86;102014.28;5009879;28;124063;-75
2023/12/03 07:37:32;;;;;;;25.38;8.75;;;;;;;3.28;60.73;102014.28;5010862;28;123724;-75
2023/12/03 07:40:00;;;;;;;25.08;8.45;;;;;;;3.28;60.83;102009.03;4996085;28;114202;-75
2023/12/03 07:42:28;;;;;;;20.48;8.02;;;;;;;3.29;60.69;102016.00;5015538;28;115040;-75
2023/12/03 07:44:56;;;;;;;29.38;8.98;;;;;;;3.29;60.63;102016.00;5010714;28;124020;-75
2023/12/03 07:47:23;;;;;;;27.02;8.05;;;;;;;3.28;60.72;102011.66;5002582;28;124044;-75
2023/12/03 07:49:51;;;;;;;26.27;8.00;;;;;;;3.29;60.85;102016.00;4992700;28;115061;-75
2023/12/03 07:52:19;;;;;;;26.20;8.05;;;;;;;3.29;60.90;102026.47;4991855;28;115260;-75
2023/12/03 07:54:46;;;;;;;25.88;8.40;;;;;;;3.30;60.93;102028.25;4999533;28;124759;-75
2023/12/03 07:57:15;;;;;;;24.52;8.48;;;;;;;3.31;60.95;102019.53;4994379;28;123073;-74
2023/12/03 07:59:42;;;;;;;25.45;8.75;;;;;;;3.34;60.80;102028.25;5006000;28;114500;-72
2023/12/03 08:02:09;;;;;;;26.85;8.88;;;;;;;3.36;60.72;102031.75;5003446;28;114170;-72
2023/12/03 08:04:36;;;;;;;27.33;8.82;;;;;;;3.37;60.76;102034.38;4999873;28;124105;-72
2023/12/03 08:07:05;;;;;;;23.27;8.48;;;;;;;3.39;60.77;102031.75;4991492;28;122786;-72
2023/12/03 08:09:32;;;;;;;22.20;7.85;;;;;;;3.39;60.84;102036.97;4993364;28;114142;-72
2023/12/03 08:12:00;;;;;;;24.95;8.68;;;;;;;3.40;60.85;102033.50;5009161;28;113893;-72
2023/12/03 08:14:28;;;;;;;28.48;8.93;;;;;;;3.41;60.95;102037.88;4993096;28;124941;-72
2023/12/03 08:16:55;;;;;;;24.83;8.18;;;;;;;3.42;60.91;102026.53;5006661;28;123008;-72
2023/12/03 08:19:22;;;;;;;20.67;8.05;;;;;;;3.44;60.76;102040.50;5003110;28;114422;-72
2023/12/03 08:21:50;;;;;;;22.98;7.47;;;;;;;3.46;60.76;102031.78;5000793;28;113734;-72
2023/12/03 08:24:17;;;;;;;24.13;8.00;;;;;;;3.48;60.83;102029.16;5003936;28;123957;-72
2023/12/03 08:26:45;;;;;;;25.75;8.57;;;;;;;3.51;60.91;102031.81;5000218;28;123896;-72
2023/12/03 08:29:12;;;;;;;26.25;8.73;;;;;;;3.53;60.85;102032.69;5003940;28;114633;-72
2023/12/03 08:31:40;;;;;;;24.15;8.18;;;;;;;3.56;60.94;102034.44;5019336;28;114446;-72
2023/12/03 08:34:07;;;;;;;26.17;9.13;;;;;;;3.57;60.94;102031.81;5007880;28;123856;-72
2023/12/03 08:36:34;;;;;;;26.58;8.30;;;;;;;3.60;60.98;102037.09;4988465;28;125441;-72
2023/12/03 08:39:05;;;;;;;28.25;8.70;;;;;;;3.63;60.93;102041.44;4989904;28;115242;-72
2023/12/03 08:41:33;;;;;;;22.67;7.93;;;;;;;3.64;61.00;102033.59;5002337;28;115019;-72
2023/12/03 08:44:00;;;;;;;26.17;9.02;;;;;;;3.66;60.85;102037.09;4987031;28;124326;-72
2023/12/03 08:46:27;;;;;;;20.80;8.00;;;;;;;3.69;61.03;102037.09;4992009;28;124603;-72
2023/12/03 08:48:56;;;;;;;26.58;8.13;;;;;;;3.73;61.04;102043.22;5007414;28;114305;-72
2023/12/03 08:51:23;;;;;;;19.90;7.57;;;;;;;3.78;61.15;102051.09;5007474;28;113611;-72
2023/12/03 08:53:51;;;;;;;23.08;8.52;;;;;;;3.81;60.78;102051.13;5002525;28;123660;-72
2023/12/03 08:56:18;;;;;;;23.50;8.15;;;;;;;3.84;61.07;102046.75;5009823;28;123789;-72
2023/12/03 08:58:47;;;;;;;19.90;7.70;;;;;;;3.86;60.89;102044.13;5009917;28;114116;-72
2023/12/03 09:01:14;;;;;;;28.17;8.75;;;;;;;3.90;60.72;102051.13;5005599;28;113646;-72
2023/12/03 09:03:41;;;;;;;26.73;7.85;;;;;;;3.92;60.79;102059.88;4994289;28;124028;-72
2023/12/03 09:06:09;;;;;;;23.00;7.97;;;;;;;3.96;60.66;102056.38;4999661;28;123620;-72
2023/12/03 09:08:36;;;;;;;24.90;7.72;;;;;;;3.96;60.71;102051.13;5006437;28;114706;-72
2023/12/03 09:11:07;;;;;;;22.33;7.55;;;;;;;3.98;60.74;102054.63;4967038;28;113641;-72
2023/12/03 09:13:35;;;;;;;23.02;7.97;;;;;;;4.00;60.70;102058.13;4991163;28;124160;-72
2023/12/03 09:16:03;;;;;;;22.77;8.00;;;;;;;4.04;60.93;102054.63;5004147;28;123538;-72
2023/12/03 09:18:33;;;;;;;23.40;7.72;;;;;;;4.07;60.98;102059.91;5006092;28;114739;-71
2023/12/03 09:21:00;;;;;;;25.27;8.23;;;;;;;4.12;60.72;102045.91;5006524;28;113364;-72
2023/12/03 09:23:28;;;;;;;26.85;8.57;;;;;;;4.15;60.59;102049.41;4993181;28;123778;-72
2023/12/03 09:25:56;;;;;;;22.75;8.13;;;;;;;4.21;60.81;102051.16;5010002;28;123974;-72
2023/12/03 09:28:23;;;;;;;23.95;8.45;;;;;;;4.24;60.53;102056.44;4991571;28;115412;-72
2023/12/03 09:30:51;;;;;;;20.83;7.78;;;;;;;4.27;60.78;102056.41;5006185;28;114978;-72
2023/12/03 09:33:18;;;;;;;21.80;8.10;;;;;;;4.31;60.74;102052.91;5011599;28;124989;-72
2023/12/03 09:35:46;;;;;;;19.77;7.65;;;;;;;4.34;60.75;102058.16;4991432;28;122829;-72
2023/12/03 09:38:13;;;;;;;21.75;7.93;;;;;;;4.39;60.74;102061.69;5005852;28;114656;-72
2023/12/03 09:40:41;;;;;;;22.05;7.28;;;;;;;4.43;60.74;102063.41;5008675;28;114152;-72
2023/12/03 09:43:09;;;;;;;21.98;8.10;;;;;;;4.46;60.66;102052.94;5010550;28;124271;-72
2023/12/03 09:45:38;;;;;;;23.27;7.93;;;;;;;4.51;60.52;102059.94;4995329;28;123557;-73
2023/12/03 09:48:08;;;;;;;21.70;7.50;;;;;;;4.54;60.75;102059.91;4990314;28;114782;-72
2023/12/03 09:50:37;;;;;;;24.90;7.28;;;;;;;4.56;60.55;102048.56;5005724;28;113637;-72
2023/12/03 09:53:06;;;;;;;23.08;7.35;;;;;;;4.58;60.37;102046.81;5003173;28;124162;-72
2023/12/03 09:55:37;;;;;;;27.42;8.70;;;;;;;4.62;60.38;102052.94;5011060;28;124645;-72
2023/12/03 09:58:04;;;;;;;21.33;7.53;;;;;;;4.67;60.43;102056.41;4994117;28;113881;-73
2023/12/03 10:00:34;;;;;;;21.23;6.97;;;;;;;4.73;60.73;102051.16;5012383;28;114363;-73
2023/12/03 10:03:01;;;;;;;23.25;8.32;;;;;;;4.80;60.50;102063.41;5000764;28;123876;-73
2023/12/03 10:05:36;;;;;;;18.77;6.70;;;;;;;4.86;60.64;102058.13;5008496;28;124310;-74
2023/12/03 10:08:04;;;;;;;22.00;7.47;;;;;;;4.93;60.50;102058.13;4978377;28;113300;-74
2023/12/03 10:10:40;;;;;;;23.48;7.85;;;;;;;4.94;60.36;102049.38;4995446;28;114128;-74
2023/12/03 10:13:12;;;;;;;21.55;7.80;;;;;;;4.98;60.19;102051.13;4993794;28;124129;-74
2023/12/03 10:15:44;;;;;;;22.90;7.65;;;;;;;5.00;60.22;102050.22;5007247;28;124561;-75
2023/12/03 10:18:11;;;;;;;24.05;8.32;;;;;;;5.02;60.24;102053.72;5012307;28;115721;-75
2023/12/03 10:20:40;;;;;;;24.83;8.50;;;;;;;5.05;60.20;102032.72;5011963;28;114580;-75
2023/12/03 10:23:18;;;;;;;23.63;7.88;;;;;;;5.09;60.18;102049.34;5011811;28;123948;-75
2023/12/03 10:25:45;;;;;;;20.77;7.50;;;;;;;5.12;60.21;102038.81;4990994;28;122977;-75
2023/12/03 10:28:28;;;;;;;23.10;7.35;;;;;;;5.17;60.30;102038.81;5009371;28;114391;-75
2023/12/03 10:30:56;;;;;;;19.60;7.22;;;;;;;5.20;60.25;102031.78;5010961;28;113833;-75
2023/12/03 10:33:25;;;;;;;21.27;7.95;;;;;;;5.23;60.16;102037.00;4996526;28;123983;-76
2023/12/03 10:36:00;;;;;;;22.00;6.97;;;;;;;5.26;60.00;102029.13;5009104;28;125237;-75
2023/12/03 10:38:38;;;;;;;16.00;6.53;;;;;;;5.30;60.06;102031.75;5016278;28;114525;-75
2023/12/03 10:41:09;;;;;;;17.85;6.97;;;;;;;5.33;60.11;102031.72;5013736;28;114121;-76
2023/12/03 10:43:42;;;;;;;20.23;8.07;;;;;;;5.36;60.03;102021.22;4981365;28;123094;-75
2023/12/03 10:46:13;;;;;;;19.77;7.60;;;;;;;5.41;59.96;102019.47;5004055;28;123924;-75
2023/12/03 10:48:40;;;;;;;20.10;7.45;;;;;;;5.46;59.92;102017.66;5013965;28;114228;-76
2023/12/03 10:51:10;;;;;;;22.38;7.10;;;;;;;5.48;59.80;102018.53;5013870;28;114079;-75
2023/12/03 10:53:38;;;;;;;18.33;7.32;;;;;;;5.52;59.80;102017.66;4981593;28;123078;-75
2023/12/03 10:56:07;;;;;;;16.23;6.35;;;;;;;5.55;59.86;102017.63;5013452;28;124281;-75
2023/12/03 10:58:37;;;;;;;19.55;7.15;;;;;;;5.57;59.87;102020.25;5008754;28;113939;-75
2023/12/03 11:01:19;;;;;;;20.83;7.38;;;;;;;5.57;59.52;102005.34;5014134;28;114352;-75
2023/12/03 11:03:57;;;;;;;19.00;7.05;;;;;;;5.59;59.58;102014.09;4991125;28;123448;-75
2023/12/03 11:06:25;;;;;;;18.25;6.85;;;;;;;5.63;59.25;102007.94;5017687;28;123695;-75
2023/12/03 11:08:56;;;;;;;23.83;7.90;;;;;;;5.64;59.88;102007.06;5014038;28;115010;-75
2023/12/03 11:11:24;;;;;;;18.85;8.05;;;;;;;5.69;59.79;102008.78;5014612;28;114771;-75
2023/12/03 11:13:53;;;;;;;20.90;7.15;;;;;;;5.71;59.65;102001.75;5011398;28;123507;-74
2023/12/03 11:16:27;;;;;;;19.02;7.25;;;;;;;5.71;59.66;101996.50;4998201;28;123864;-74
2023/12/03 11:19:17;;;;;;;21.98;7.22;;;;;;;5.71;59.28;101991.25;5018844;28;114674;-75
2023/12/03 11:22:24;;;;;;;20.00;7.60;;;;;;;5.72;59.54;101993.00;4996375;28;113978;-75
2023/12/03 11:25:18;;;;;;;20.50;7.38;;;;;;;5.72;59.37;101971.97;4996601;28;123328;-75
2023/12/03 11:27:46;;;;;;;21.50;6.63;;;;;;;5.73;59.50;101973.72;4988976;28;123537;-75